createdAt,value
2022-08-14T00:01:55.433Z,6.53
2022-08-14T00:04:46.360Z,5.32
2022-08-14T00:07:35.635Z,4.90
2022-08-14T00:10:51.569Z,4.82
2022-08-14T00:13:40.904Z,5.35
2022-08-14T00:16:41.364Z,5.65
2022-08-14T00:19:33.516Z,5.10
2022-08-14T00:22:56.600Z,5.40
2022-08-14T00:25:42.118Z,5.95
2022-08-14T00:28:32.793Z,5.00
2022-08-14T00:31:35.197Z,4.85
2022-08-14T00:34:36.344Z,5.22
2022-08-14T00:37:32.029Z,5.45
2022-08-14T00:40:33.073Z,8.30
2022-08-14T00:43:24.213Z,5.88
2022-08-14T00:46:23.445Z,4.75
2022-08-14T00:49:23.315Z,5.63
2022-08-14T00:52:17.695Z,7.30
2022-08-14T00:55:08.747Z,5.45
2022-08-14T00:58:20.327Z,5.93
2022-08-14T01:01:21.188Z,5.97
2022-08-14T01:04:51.577Z,5.30
2022-08-14T01:07:23.586Z,5.88
2022-08-14T01:10:12.609Z,6.05
2022-08-14T01:13:01.312Z,4.63
2022-08-14T01:15:58.397Z,5.72
2022-08-14T01:19:07.504Z,5.50
2022-08-14T01:21:58.849Z,4.63
2022-08-14T01:24:50.991Z,4.95
2022-08-14T01:27:56.864Z,5.93
2022-08-14T01:30:46.425Z,5.35
2022-08-14T01:33:59.314Z,5.95
2022-08-14T01:36:47.193Z,7.70
2022-08-14T01:39:37.948Z,6.07
2022-08-14T01:42:30.972Z,7.57
2022-08-14T01:45:25.519Z,5.55
2022-08-14T01:48:14.521Z,5.70
2022-08-14T01:51:03.582Z,5.97
2022-08-14T01:53:55.342Z,5.22
2022-08-14T01:56:46.129Z,6.00
2022-08-14T01:59:37.817Z,5.28
2022-08-14T02:02:27.838Z,5.70
2022-08-14T02:05:35.517Z,5.57
2022-08-14T02:08:35.471Z,6.20
2022-08-14T02:11:25.039Z,5.90
2022-08-14T02:14:15.614Z,6.80
2022-08-14T02:17:23.070Z,6.30
2022-08-14T02:20:14.086Z,5.97
2022-08-14T02:23:02.914Z,6.20
2022-08-14T02:25:54.338Z,8.38
2022-08-14T02:28:57.913Z,6.47
2022-08-14T02:31:52.787Z,6.53
2022-08-14T02:34:43.038Z,6.78
2022-08-14T02:37:46.389Z,7.38
2022-08-14T02:40:37.729Z,7.68
2022-08-14T02:43:36.791Z,7.22
2022-08-14T02:46:35.463Z,7.28
2022-08-14T02:49:34.126Z,7.38
2022-08-14T02:52:56.857Z,7.03
2022-08-14T02:55:32.930Z,7.32
2022-08-14T02:58:30.440Z,7.88
2022-08-14T03:01:24.019Z,7.25
2022-08-14T03:04:15.847Z,7.00
2022-08-14T03:07:09.507Z,7.20
2022-08-14T03:10:26.504Z,7.72
2022-08-14T03:13:06.980Z,7.63
2022-08-14T03:16:20.302Z,7.95
2022-08-14T03:19:15.710Z,7.15
2022-08-14T03:22:17.738Z,7.75
2022-08-14T03:25:07.633Z,6.88
2022-08-14T03:28:02.754Z,7.70
2022-08-14T03:30:51.698Z,8.02
2022-08-14T03:33:44.502Z,7.57
2022-08-14T03:37:51.281Z,7.88
2022-08-14T03:39:43.815Z,7.60
2022-08-14T03:42:36.770Z,7.03
2022-08-14T03:45:35.454Z,9.85
2022-08-14T03:48:30.531Z,7.70
2022-08-14T03:51:20.067Z,7.97
2022-08-14T03:54:09.452Z,9.10
2022-08-14T03:57:06.751Z,7.40
2022-08-14T03:59:55.167Z,8.88
2022-08-14T04:02:46.815Z,7.75
2022-08-14T04:05:43.294Z,8.38
2022-08-14T04:08:38.415Z,7.10
2022-08-14T04:11:30.489Z,8.20
2022-08-14T04:14:20.933Z,7.97
2022-08-14T04:17:13.063Z,8.50
2022-08-14T04:20:04.047Z,7.90
2022-08-14T04:22:53.171Z,7.78
2022-08-14T04:25:44.444Z,8.88
2022-08-14T04:29:08.464Z,7.82
2022-08-14T04:33:02.075Z,7.90
2022-08-14T04:34:56.120Z,8.15
2022-08-14T04:38:36.020Z,7.88
2022-08-14T04:41:36.137Z,7.70
2022-08-14T04:44:26.496Z,7.90
2022-08-14T04:47:46.299Z,7.80
2022-08-14T04:50:44.594Z,7.78
2022-08-14T04:53:36.091Z,8.20
2022-08-14T04:56:30.222Z,8.25
2022-08-14T04:59:20.598Z,7.82
2022-08-14T05:02:10.251Z,8.80
2022-08-14T05:05:00.575Z,9.07
2022-08-14T05:08:01.158Z,10.35
2022-08-14T05:10:51.851Z,9.32
2022-08-14T05:16:50.371Z,9.43
2022-08-14T05:19:45.072Z,9.32
2022-08-14T05:22:55.623Z,9.80
2022-08-14T05:25:45.159Z,9.52
2022-08-14T05:28:36.183Z,11.80
2022-08-14T05:31:39.583Z,11.23
2022-08-14T05:34:32.048Z,9.65
2022-08-14T05:37:20.655Z,10.18
2022-08-14T05:40:13.272Z,8.93
2022-08-14T05:43:02.198Z,9.15
2022-08-14T05:45:55.570Z,11.18
2022-08-14T05:48:45.338Z,9.85
2022-08-14T05:51:33.923Z,11.18
2022-08-14T05:54:27.142Z,9.48
2022-08-14T05:57:17.808Z,9.23
2022-08-14T06:00:07.531Z,10.70
2022-08-14T06:02:57.483Z,9.07
2022-08-14T06:05:47.662Z,9.15
2022-08-14T06:08:41.804Z,10.80
2022-08-14T06:11:31.376Z,8.98
2022-08-14T06:14:24.181Z,9.45
2022-08-14T06:17:15.682Z,11.00
2022-08-14T06:20:15.593Z,10.02
2022-08-14T06:23:10.699Z,9.63
2022-08-14T06:25:59.485Z,11.35
2022-08-14T06:28:47.943Z,9.93
2022-08-14T06:31:42.365Z,10.15
2022-08-14T06:35:10.185Z,9.05
2022-08-14T06:37:44.201Z,12.05
2022-08-14T06:40:35.613Z,8.90
2022-08-14T06:43:29.831Z,9.32
2022-08-14T06:46:23.093Z,9.85
2022-08-14T06:49:16.472Z,9.23
2022-08-14T06:52:06.064Z,10.50
2022-08-14T06:54:55.305Z,9.63
2022-08-14T06:57:46.050Z,15.60
2022-08-14T07:00:34.677Z,7.63
2022-08-14T07:03:40.571Z,8.82
2022-08-14T07:06:46.585Z,7.78
2022-08-14T07:09:43.595Z,8.57
2022-08-14T07:12:54.197Z,8.45
2022-08-14T07:15:43.132Z,7.80
2022-08-14T07:18:33.157Z,8.20
2022-08-14T07:21:21.624Z,9.10
2022-08-14T07:24:26.160Z,10.02
2022-08-14T07:27:19.673Z,7.70
2022-08-14T07:30:34.478Z,8.38
2022-08-14T07:33:24.706Z,7.97
2022-08-14T07:36:27.769Z,8.23
2022-08-14T07:39:27.734Z,7.82
2022-08-14T07:42:16.778Z,8.95
2022-08-14T07:45:12.069Z,10.07
2022-08-14T07:48:00.878Z,8.18
2022-08-14T07:50:50.748Z,6.88
2022-08-14T07:53:41.268Z,7.38
2022-08-14T07:56:48.238Z,8.07
2022-08-14T07:59:42.328Z,7.30
2022-08-14T08:02:33.335Z,7.50
2022-08-14T08:05:24.506Z,7.80
2022-08-14T08:08:26.474Z,7.93
2022-08-14T08:11:19.318Z,7.43
2022-08-14T08:14:17.299Z,7.30
2022-08-14T08:17:07.039Z,7.40
2022-08-14T08:19:57.252Z,7.32
2022-08-14T08:22:47.943Z,7.70
2022-08-14T08:25:40.419Z,8.52
2022-08-14T08:28:31.362Z,6.53
2022-08-14T08:31:23.059Z,6.80
2022-08-14T08:34:23.596Z,7.22
2022-08-14T08:37:13.042Z,6.63
2022-08-14T08:40:04.175Z,6.70
2022-08-14T08:42:54.934Z,7.50
2022-08-14T08:45:55.627Z,7.88
2022-08-14T08:48:52.073Z,7.60
